Time;durP1;ratioP1;P1;durP2;ratioP2;P2;SDS_P1;SDS_P2;PMS_P1;PMS_P2;Temp;Humidity;BMP_temperature;BMP_pressure;BME280_temperature;BME280_humidity;BME280_pressure;Samples;Min_cycle;Max_cycle;Signal;HPM_P1;HPM_P2
2021/01/14 00:00:59;;;;;;;26.35;13.25;;;;;;;2.16;69.45;97783.09;260813;1104;114884;-62
2021/01/14 00:06:02;;;;;;;23.50;12.87;;;;;;;2.19;69.40;97779.48;260649;1104;115022;-63
2021/01/14 00:11:04;;;;;;;27.70;14.37;;;;;;;2.21;69.32;97770.61;260494;1104;115219;-63
2021/01/14 00:16:07;;;;;;;22.33;13.80;;;;;;;2.25;69.69;97769.53;258312;1105;114815;-66
2021/01/14 00:21:09;;;;;;;24.87;13.77;;;;;;;2.22;69.83;97764.42;260806;1104;115064;-65
2021/01/14 00:26:12;;;;;;;23.17;13.80;;;;;;;2.24;69.46;97751.22;260764;1104;114924;-64
2021/01/14 00:31:15;;;;;;;23.20;13.57;;;;;;;2.23;69.58;97754.77;260943;1103;114888;-64
2021/01/14 00:36:30;;;;;;;19.77;12.87;;;;;;;2.20;69.50;97745.27;260031;1104;114990;-66
2021/01/14 00:41:37;;;;;;;19.37;11.80;;;;;;;2.17;69.44;97744.57;260843;1104;114939;-65
2021/01/14 00:46:40;;;;;;;22.10;12.63;;;;;;;2.13;69.43;97743.88;260917;1104;115368;-64
2021/01/14 00:51:45;;;;;;;24.03;13.37;;;;;;;2.15;69.21;97730.70;260846;1103;114919;-63
2021/01/14 00:56:48;;;;;;;20.62;11.55;;;;;;;2.17;69.30;97723.58;260850;1104;114929;-63
2021/01/14 01:01:50;;;;;;;20.10;12.97;;;;;;;2.17;69.54;97728.83;260832;1104;115026;-63
2021/01/14 01:06:52;;;;;;;19.50;12.23;;;;;;;2.14;69.47;97724.60;260657;1103;115562;-64
2021/01/14 01:11:54;;;;;;;20.17;11.50;;;;;;;2.08;69.50;97719.65;260864;1104;114926;-67
2021/01/14 01:16:57;;;;;;;23.77;12.67;;;;;;;2.04;69.53;97708.45;261088;1104;114843;-66
2021/01/14 01:21:59;;;;;;;21.33;12.17;;;;;;;2.05;69.71;97712.77;260936;1104;114885;-66
2021/01/14 01:27:02;;;;;;;21.33;12.60;;;;;;;2.10;69.76;97710.75;261023;1103;114796;-65
2021/01/14 01:32:04;;;;;;;23.30;11.50;;;;;;;2.10;69.59;97702.88;261009;1104;114935;-65
2021/01/14 01:37:06;;;;;;;21.00;11.97;;;;;;;2.06;69.47;97690.84;260976;1104;115083;-64
2021/01/14 01:42:09;;;;;;;20.03;11.47;;;;;;;2.06;69.73;97690.00;260976;1104;114867;-65
2021/01/14 01:47:11;;;;;;;20.50;10.97;;;;;;;2.03;69.50;97695.39;260835;1104;114940;-64
2021/01/14 01:52:14;;;;;;;20.63;12.10;;;;;;;1.97;69.79;97693.94;260969;1104;115039;-64
2021/01/14 01:57:17;;;;;;;20.53;11.77;;;;;;;1.98;69.54;97694.79;260705;1104;115142;-65
2021/01/14 02:02:22;;;;;;;19.60;11.77;;;;;;;1.97;69.74;97695.69;260840;1104;115092;-64
2021/01/14 02:07:36;;;;;;;21.40;12.03;;;;;;;2.01;69.69;97694.64;260891;1104;114984;-64
2021/01/14 02:12:53;;;;;;;18.10;10.50;;;;;;;2.04;69.76;97695.34;260875;1103;114796;-63
2021/01/14 02:17:55;;;;;;;15.63;10.20;;;;;;;2.05;69.83;97691.78;260865;1104;114892;-63
2021/01/14 02:23:01;;;;;;;16.80;10.70;;;;;;;2.05;70.12;97688.31;260955;1104;114983;-60
2021/01/14 02:28:04;;;;;;;19.73;10.60;;;;;;;2.04;69.74;97676.13;260856;1103;114943;-61
2021/01/14 02:33:12;;;;;;;15.20;10.10;;;;;;;2.03;69.65;97677.88;260930;1104;114801;-60
2021/01/14 02:38:15;;;;;;;16.03;10.17;;;;;;;2.04;69.76;97676.13;260960;1104;115105;-61
2021/01/14 02:43:17;;;;;;;17.03;9.37;;;;;;;2.06;69.75;97677.73;260966;1104;114937;-62
2021/01/14 02:48:23;;;;;;;19.93;10.43;;;;;;;2.06;69.70;97677.73;260776;1103;115600;-62
2021/01/14 02:53:26;;;;;;;15.25;9.95;;;;;;;2.06;69.78;97675.10;260956;1103;114950;-63
2021/01/14 02:58:28;;;;;;;13.60;9.13;;;;;;;2.07;69.36;97673.32;261038;1104;114635;-63
2021/01/14 03:03:31;;;;;;;14.53;9.33;;;;;;;2.07;69.92;97678.57;261092;1103;115707;-62
2021/01/14 03:08:33;;;;;;;14.97;9.20;;;;;;;2.00;69.61;97669.31;260948;1104;114672;-62
2021/01/14 03:13:36;;;;;;;14.83;9.43;;;;;;;1.97;69.69;97666.83;260923;1104;114476;-64
2021/01/14 03:18:38;;;;;;;14.00;9.27;;;;;;;1.98;70.04;97660.69;260869;1104;114389;-63
2021/01/14 03:23:40;;;;;;;18.73;9.27;;;;;;;2.02;69.99;97662.22;260941;1104;114710;-63
2021/01/14 03:28:43;;;;;;;15.73;9.20;;;;;;;2.08;70.07;97656.67;260703;1104;114700;-64
2021/01/14 03:33:49;;;;;;;17.77;9.20;;;;;;;2.07;69.79;97649.70;259476;1104;114824;-61
2021/01/14 03:38:52;;;;;;;15.50;9.67;;;;;;;2.03;70.26;97641.14;260922;1104;114755;-66
2021/01/14 03:43:55;;;;;;;16.23;9.73;;;;;;;2.03;69.85;97651.64;260817;1103;114951;-66
2021/01/14 03:48:57;;;;;;;14.70;9.03;;;;;;;2.00;69.80;97653.56;260904;1104;114985;-68
2021/01/14 03:53:59;;;;;;;15.23;9.20;;;;;;;1.94;69.46;97659.98;260883;1104;115409;-67
2021/01/14 03:59:02;;;;;;;16.53;9.87;;;;;;;1.90;70.02;97655.80;260594;1104;114877;-68
2021/01/14 04:04:05;;;;;;;16.23;9.63;;;;;;;1.95;69.96;97655.59;260908;1104;114605;-65
2021/01/14 04:09:07;;;;;;;18.00;9.77;;;;;;;1.99;69.90;97660.59;260870;1103;114644;-65
2021/01/14 04:14:10;;;;;;;16.10;9.23;;;;;;;2.02;70.01;97660.44;260904;1104;114857;-65
2021/01/14 04:19:12;;;;;;;21.20;9.40;;;;;;;2.01;69.96;97657.91;260843;1104;114706;-65
2021/01/14 04:24:15;;;;;;;11.53;7.20;;;;;;;2.00;69.71;97657.03;260990;1104;114693;-66
2021/01/14 04:29:17;;;;;;;15.73;8.40;;;;;;;1.99;69.96;97655.34;261049;1104;114694;-67
2021/01/14 04:34:20;;;;;;;15.10;9.37;;;;;;;1.99;69.84;97652.72;260957;1104;114433;-67
2021/01/14 04:39:22;;;;;;;15.20;8.83;;;;;;;1.97;69.98;97657.22;260995;1104;115255;-67
2021/01/14 04:44:26;;;;;;;15.13;8.43;;;;;;;1.98;69.83;97658.06;260913;1104;114560;-66
2021/01/14 04:49:29;;;;;;;17.80;8.60;;;;;;;2.01;69.88;97656.13;260913;1104;114556;-66
2021/01/14 04:54:35;;;;;;;15.77;8.27;;;;;;;2.02;69.91;97652.58;260779;1104;115567;-66
2021/01/14 04:59:43;;;;;;;12.87;7.53;;;;;;;2.03;70.29;97654.27;260799;1104;114756;-67
2021/01/14 05:04:45;;;;;;;19.77;9.17;;;;;;;2.01;69.89;97653.51;260857;1104;114856;-65
2021/01/14 05:09:48;;;;;;;14.93;8.40;;;;;;;2.00;69.74;97654.41;260710;1104;115004;-66
2021/01/14 05:14:51;;;;;;;19.00;9.60;;;;;;;1.98;69.77;97656.28;260921;1103;114695;-65
2021/01/14 05:19:56;;;;;;;15.30;8.70;;;;;;;2.00;69.82;97667.53;260866;1104;114639;-65
2021/01/14 05:25:09;;;;;;;13.55;9.40;;;;;;;2.02;70.07;97662.22;260856;1104;114944;-67
2021/01/14 05:30:13;;;;;;;17.13;9.17;;;;;;;2.05;70.64;97662.92;260977;1104;114830;-67
2021/01/14 05:35:27;;;;;;;20.63;9.33;;;;;;;2.03;69.89;97666.53;260814;1104;114946;-66
2021/01/14 05:40:30;;;;;;;18.17;9.78;;;;;;;2.01;70.01;97674.50;260933;1104;114863;-64
2021/01/14 05:45:34;;;;;;;14.30;8.50;;;;;;;1.99;69.72;97678.11;260809;1104;114723;-65
2021/01/14 05:50:46;;;;;;;14.27;8.87;;;;;;;1.98;69.99;97685.14;260972;1104;114986;-64
2021/01/14 05:55:52;;;;;;;16.07;9.00;;;;;;;1.96;69.91;97684.35;260870;1104;115123;-65
2021/01/14 06:01:03;;;;;;;12.68;8.33;;;;;;;1.98;70.09;97692.16;260970;1103;114749;-65
2021/01/14 06:06:17;;;;;;;16.33;9.30;;;;;;;2.01;69.97;97689.39;260745;1104;115342;-66
2021/01/14 06:11:22;;;;;;;16.23;9.63;;;;;;;2.03;70.01;97698.86;260752;1104;114819;-63
2021/01/14 06:16:25;;;;;;;13.63;8.80;;;;;;;2.03;69.73;97698.02;260869;1104;115115;-64
2021/01/14 06:21:43;;;;;;;11.20;8.63;;;;;;;2.03;69.90;97703.27;260707;1104;114881;-66
2021/01/14 06:26:46;;;;;;;14.43;9.23;;;;;;;2.00;69.84;97708.66;260664;1104;114684;-64
2021/01/14 06:31:49;;;;;;;13.83;10.00;;;;;;;1.97;70.08;97716.67;260814;1104;114802;-65
2021/01/14 06:36:51;;;;;;;15.97;10.53;;;;;;;1.95;70.05;97722.02;260843;1104;115572;-66
2021/01/14 06:42:09;;;;;;;16.30;10.63;;;;;;;1.99;69.95;97738.45;260872;1104;115122;-66
2021/01/14 06:47:28;;;;;;;15.70;10.53;;;;;;;2.05;70.06;97733.76;260984;1104;115866;-66
2021/01/14 06:52:31;;;;;;;17.60;11.60;;;;;;;2.11;70.08;97743.12;260898;1104;205544;-65
2021/01/14 06:57:35;;;;;;;19.10;12.07;;;;;;;2.12;70.33;97745.66;260935;1104;114814;-65
2021/01/14 07:02:37;;;;;;;18.20;11.43;;;;;;;2.07;69.96;97759.91;260894;1104;115718;-65
2021/01/14 07:07:46;;;;;;;21.10;13.27;;;;;;;2.03;70.20;97759.21;260906;1103;115261;-64
2021/01/14 07:12:51;;;;;;;20.53;13.67;;;;;;;2.08;70.04;97774.75;260974;1104;115539;-64
2021/01/14 07:18:02;;;;;;;22.07;13.97;;;;;;;2.12;69.95;97782.39;260661;1104;114850;-64
2021/01/14 07:23:08;;;;;;;24.80;14.17;;;;;;;2.21;70.04;97793.36;260852;1104;115039;-68
2021/01/14 07:28:10;;;;;;;23.53;15.40;;;;;;;2.27;70.04;97793.06;260972;1104;114829;-63
2021/01/14 07:33:13;;;;;;;25.07;16.10;;;;;;;2.29;69.94;97802.57;260929;1104;115526;-64
2021/01/14 07:38:17;;;;;;;25.60;16.10;;;;;;;2.28;69.75;97808.75;260887;1103;115221;-64
2021/01/14 07:43:34;;;;;;;31.03;16.43;;;;;;;2.30;69.97;97819.16;260905;1104;114716;-64
2021/01/14 07:48:39;;;;;;;25.70;15.43;;;;;;;2.31;70.39;97816.48;260976;1104;114850;-64
2021/01/14 07:53:42;;;;;;;24.92;16.57;;;;;;;2.32;69.85;97826.05;260965;1104;114871;-65
2021/01/14 07:58:45;;;;;;;25.23;16.77;;;;;;;2.33;69.51;97832.98;260964;1104;114883;-64
2021/01/14 08:03:48;;;;;;;27.47;16.20;;;;;;;2.34;69.48;97839.09;260962;1104;115008;-65
2021/01/14 08:09:07;;;;;;;25.17;15.03;;;;;;;2.39;69.74;97850.23;260939;1103;114750;-66
2021/01/14 08:14:20;;;;;;;28.63;17.53;;;;;;;2.46;69.89;97862.13;261095;1104;114922;-63
2021/01/14 08:19:29;;;;;;;30.07;16.43;;;;;;;2.57;69.92;97859.83;260946;1104;114617;-64
2021/01/14 08:24:47;;;;;;;25.73;16.37;;;;;;;2.68;69.35;97871.59;260927;1104;115153;-64
2021/01/14 08:30:15;;;;;;;23.93;14.93;;;;;;;2.69;69.48;97882.03;260820;1105;116099;-63
2021/01/14 08:35:17;;;;;;;22.83;15.80;;;;;;;2.70;69.83;97882.87;260970;1104;114686;-64
2021/01/14 08:40:22;;;;;;;26.97;16.03;;;;;;;2.70;69.38;97890.77;260852;1103;116949;-63
2021/01/14 08:45:33;;;;;;;29.20;15.93;;;;;;;2.69;69.44;97894.32;260342;1104;114956;-63
2021/01/14 08:50:43;;;;;;;25.57;15.93;;;;;;;2.69;69.48;97916.18;260939;1103;115087;-64
2021/01/14 08:56:00;;;;;;;25.17;15.43;;;;;;;2.70;69.15;97924.91;260818;1104;115825;-63
2021/01/14 09:01:08;;;;;;;25.83;15.07;;;;;;;2.75;69.48;97926.40;260884;1104;115182;-64
2021/01/14 09:06:10;;;;;;;27.30;15.83;;;;;;;2.83;69.18;97936.52;260913;1104;115181;-64
2021/01/14 09:11:13;;;;;;;24.97;14.27;;;;;;;2.87;69.16;97945.95;260774;1104;115155;-64
2021/01/14 09:16:16;;;;;;;28.07;17.47;;;;;;;2.90;68.96;97948.44;260736;1104;117047;-64
2021/01/14 09:21:18;;;;;;;29.30;16.73;;;;;;;2.95;69.15;97963.97;260789;1104;115071;-63
2021/01/14 09:26:21;;;;;;;28.43;15.80;;;;;;;2.94;68.96;97970.16;260719;1104;115550;-64
2021/01/14 09:31:23;;;;;;;22.67;13.77;;;;;;;2.93;69.09;97978.98;260759;1104;114794;-63
2021/01/14 09:36:25;;;;;;;22.80;14.40;;;;;;;2.91;69.11;97975.56;260730;1104;114991;-63
2021/01/14 09:41:29;;;;;;;22.60;14.17;;;;;;;2.92;69.16;97983.38;260816;1104;115515;-64
2021/01/14 09:46:35;;;;;;;26.15;14.53;;;;;;;2.95;69.33;97984.98;260874;1104;114950;-64
2021/01/14 09:51:42;;;;;;;27.57;15.37;;;;;;;2.92;68.66;97990.39;260852;1104;114949;-65
2021/01/14 09:56:50;;;;;;;26.07;14.30;;;;;;;2.93;69.04;97985.08;260594;1104;114806;-64
2021/01/14 10:01:56;;;;;;;22.17;13.03;;;;;;;2.95;69.11;97988.47;260911;1104;114981;-65
2021/01/14 10:07:04;;;;;;;19.70;12.60;;;;;;;3.00;68.92;97996.99;260728;1103;114858;-65
2021/01/14 10:12:09;;;;;;;21.40;13.83;;;;;;;3.01;68.90;98005.72;260849;1104;116367;-65
2021/01/14 10:17:14;;;;;;;26.33;13.70;;;;;;;2.99;69.20;98013.70;260861;1104;114843;-65
2021/01/14 10:22:17;;;;;;;25.10;13.98;;;;;;;2.99;68.75;98018.07;260786;1104;115376;-64
2021/01/14 10:27:21;;;;;;;24.53;13.23;;;;;;;2.98;69.06;98021.64;260798;1104;115090;-64
2021/01/14 10:32:25;;;;;;;24.82;13.70;;;;;;;2.98;69.41;98026.89;260837;1103;115122;-64
2021/01/14 10:37:31;;;;;;;26.00;16.10;;;;;;;3.01;68.88;98024.97;260851;1103;115009;-63
2021/01/14 10:42:46;;;;;;;29.97;17.73;;;;;;;3.04;69.30;98035.34;260807;1104;115708;-70
2021/01/14 10:48:18;;;;;;;28.83;18.07;;;;;;;3.10;68.62;98041.23;260574;1104;115207;-70
2021/01/14 10:53:33;;;;;;;;;;;;;;;3.17;69.08;98050.53;260793;1104;115236;-71
2021/01/14 10:59:16;;;;;;;;;;;;;;;;;;;;;
2021/01/14 11:04:55;;;;;;;23.43;13.90;;;;;;;3.25;68.55;98051.00;259875;1107;115067;-69
2021/01/14 11:10:32;;;;;;;18.93;13.33;;;;;;;3.28;68.93;98056.96;259670;1107;114982;-71
2021/01/14 11:15:49;;;;;;;21.97;13.40;;;;;;;3.32;68.28;98058.51;260337;1104;115130;-71
2021/01/14 11:20:56;;;;;;;21.03;13.43;;;;;;;3.32;68.86;98062.92;260738;1104;114761;-70
2021/01/14 11:26:18;;;;;;;;;;;;;;;;;;;;;
2021/01/14 11:31:44;;;;;;;;;;;;;;;;;;;;;
2021/01/14 11:36:58;;;;;;;25.73;16.63;;;;;;;3.36;68.70;98084.66;260754;1103;115143;-67
2021/01/14 11:42:03;;;;;;;27.77;17.77;;;;;;;3.34;68.51;98097.89;260826;1104;114983;-67
2021/01/14 11:47:06;;;;;;;27.93;19.03;;;;;;;3.30;68.06;98097.19;260934;1104;114891;-67
2021/01/14 11:52:08;;;;;;;33.17;21.03;;;;;;;3.30;68.67;98096.34;260423;1104;115006;-67
2021/01/14 11:57:10;;;;;;;35.77;20.53;;;;;;;3.32;68.44;98111.09;260833;1104;115003;-67
2021/01/14 12:02:17;;;;;;;38.70;22.93;;;;;;;3.34;68.93;98113.67;260702;1104;115427;-67
2021/01/14 12:07:20;;;;;;;39.57;24.60;;;;;;;3.35;68.33;98136.41;260764;1104;114548;-67
2021/01/14 12:12:22;;;;;;;39.10;24.00;;;;;;;3.32;68.61;98133.91;260939;1104;114928;-67
2021/01/14 12:17:25;;;;;;;41.00;24.50;;;;;;;3.31;69.15;98135.70;260721;1104;115021;-67
2021/01/14 12:22:29;;;;;;;35.05;20.92;;;;;;;3.31;68.62;98148.84;260657;1104;115020;-69
2021/01/14 12:27:32;;;;;;;33.53;20.60;;;;;;;3.33;68.58;98154.05;260761;1103;114960;-67
2021/01/14 12:32:35;;;;;;;36.13;21.87;;;;;;;3.34;68.34;98166.27;260812;1104;114987;-67
2021/01/14 12:37:38;;;;;;;35.63;20.70;;;;;;;3.30;68.70;98167.34;260767;1104;114602;-67
2021/01/14 12:42:40;;;;;;;33.57;20.00;;;;;;;3.30;68.72;98180.48;260745;1104;115189;-67
2021/01/14 12:47:45;;;;;;;34.03;18.40;;;;;;;3.35;68.14;98188.99;260713;1104;114949;-66
2021/01/14 12:52:48;;;;;;;27.52;15.60;;;;;;;3.41;68.41;98203.65;260763;1104;114632;-66
2021/01/14 12:57:50;;;;;;;26.10;15.40;;;;;;;3.31;67.91;98209.32;260795;1104;114823;-66
2021/01/14 13:02:56;;;;;;;26.90;16.60;;;;;;;3.27;67.65;98213.02;260759;1104;115102;-66
2021/01/14 13:07:59;;;;;;;26.87;16.00;;;;;;;3.27;67.70;98228.80;260716;1104;115039;-68
2021/01/14 13:13:03;;;;;;;28.37;16.47;;;;;;;3.24;68.04;98243.86;260733;1104;115113;-66
2021/01/14 13:18:09;;;;;;;22.83;13.20;;;;;;;3.21;67.39;98242.22;260765;1104;114924;-66
2021/01/14 13:23:16;;;;;;;23.10;13.93;;;;;;;3.15;67.37;98254.78;260813;1104;114762;-66
2021/01/14 13:28:24;;;;;;;18.17;11.43;;;;;;;3.12;67.59;98274.16;260769;1104;115221;-66
2021/01/14 13:33:35;;;;;;;19.10;10.87;;;;;;;3.10;67.03;98276.03;260751;1104;114828;-70
2021/01/14 13:38:41;;;;;;;18.20;10.87;;;;;;;3.08;67.05;98291.84;260837;1104;114952;-65
2021/01/14 13:43:43;;;;;;;18.42;10.98;;;;;;;3.12;67.20;98291.72;260634;1104;114820;-63
2021/01/14 13:48:46;;;;;;;19.70;11.23;;;;;;;3.07;67.53;98311.17;260872;1104;115666;-63
2021/01/14 13:53:48;;;;;;;20.03;12.13;;;;;;;3.01;67.42;98314.06;260678;1104;115371;-64
2021/01/14 13:58:51;;;;;;;18.27;11.70;;;;;;;3.04;67.15;98320.97;260825;1104;115584;-63
2021/01/14 14:03:54;;;;;;;19.17;11.20;;;;;;;3.02;67.09;98322.80;260904;1104;114528;-63
2021/01/14 15:25:30;;;;;;;41.10;16.60;;;;;;;1.68;67.17;98434.02;260802;1103;104507;-65
2021/01/14 15:30:33;;;;;;;28.50;13.90;;;;;;;1.73;66.86;98435.54;260631;1104;114541;-65
2021/01/14 15:35:38;;;;;;;32.10;16.93;;;;;;;1.74;66.99;98444.29;260541;1104;114372;-65
2021/01/14 15:40:41;;;;;;;26.80;15.37;;;;;;;1.78;66.57;98446.73;260941;1104;114262;-64
2021/01/14 15:45:43;;;;;;;35.07;17.37;;;;;;;1.81;66.84;98458.89;260914;1104;114354;-64
2021/01/14 15:50:45;;;;;;;34.50;17.87;;;;;;;1.86;66.53;98475.30;260900;1104;114898;-64
2021/01/14 15:55:47;;;;;;;33.33;16.17;;;;;;;1.90;66.49;98471.66;260940;1104;113986;-64
2021/01/14 16:00:50;;;;;;;32.77;17.27;;;;;;;1.94;66.10;98475.02;260617;1104;114444;-65
2021/01/14 16:05:57;;;;;;;29.13;16.10;;;;;;;1.96;66.24;98476.69;260301;1104;114575;-65
2021/01/14 16:10:59;;;;;;;31.47;15.23;;;;;;;1.97;66.18;98486.30;260516;1104;114901;-64
2021/01/14 16:16:16;;;;;;;30.13;15.60;;;;;;;1.97;66.22;98502.03;260501;1104;114929;-65
2021/01/14 16:21:19;;;;;;;28.30;14.73;;;;;;;1.99;65.91;98500.19;260526;1104;114329;-65
2021/01/14 16:26:21;;;;;;;32.07;15.77;;;;;;;2.00;65.97;98515.02;260656;1104;115661;-64
2021/01/14 16:31:23;;;;;;;30.20;17.20;;;;;;;2.02;65.99;98522.86;260163;1104;114282;-65
2021/01/14 16:36:26;;;;;;;35.77;17.23;;;;;;;2.00;65.79;98520.27;260287;1104;114459;-65
2021/01/14 16:41:31;;;;;;;32.97;15.60;;;;;;;1.97;65.88;98523.03;260438;1104;115380;-65
2021/01/14 16:46:35;;;;;;;;;;;;;;;1.95;65.74;98535.33;260595;1104;114592;-66
2021/01/14 16:51:38;;;;;;;32.33;16.27;;;;;;;1.96;65.75;98534.41;260650;1104;102356;-66
2021/01/14 16:56:45;;;;;;;30.67;16.03;;;;;;;1.96;65.68;98547.53;260767;1104;114528;-66
2021/01/14 17:01:51;;;;;;;30.73;15.87;;;;;;;1.94;65.74;98549.38;260751;1104;114335;-66
2021/01/14 17:06:54;;;;;;;33.03;17.03;;;;;;;1.93;65.75;98552.03;260823;1104;114607;-66
2021/01/14 17:11:56;;;;;;;35.90;18.20;;;;;;;1.90;65.75;98558.23;260800;1104;114507;-65
2021/01/14 17:17:00;;;;;;;38.33;19.33;;;;;;;1.91;66.21;98556.50;260435;1104;114631;-66
2021/01/14 17:22:06;;;;;;;34.07;19.33;;;;;;;1.96;66.47;98557.17;260740;1104;115015;-66
2021/01/14 17:27:08;;;;;;;41.17;20.30;;;;;;;1.94;66.44;98567.73;260530;1104;115725;-67
2021/01/14 17:32:13;;;;;;;47.07;21.43;;;;;;;1.97;66.37;98561.50;260734;1104;115057;-66
2021/01/14 17:37:20;;;;;;;43.77;22.30;;;;;;;1.95;66.55;98577.31;259856;1104;114558;-66
2021/01/14 17:42:30;;;;;;;42.40;21.60;;;;;;;1.95;66.55;98585.19;260522;1104;114376;-64
2021/01/14 17:47:33;;;;;;;43.90;22.27;;;;;;;1.95;66.56;98589.58;260672;1104;114475;-65
2021/01/14 17:52:36;;;;;;;41.87;20.13;;;;;;;1.86;66.38;98593.36;260387;1104;114307;-65
2021/01/14 17:57:38;;;;;;;47.37;22.87;;;;;;;1.83;66.37;98594.31;260770;1104;114737;-64
2021/01/14 18:02:41;;;;;;;43.83;23.10;;;;;;;1.82;66.43;98597.01;260549;1104;114853;-64
2021/01/14 18:07:46;;;;;;;42.43;22.87;;;;;;;1.84;67.04;98595.20;260723;1104;114284;-65
2021/01/14 18:12:49;;;;;;;41.30;21.60;;;;;;;1.82;66.75;98589.98;260591;1104;114428;-64
2021/01/14 18:17:52;;;;;;;44.70;22.17;;;;;;;1.83;66.60;98590.84;260616;1104;114203;-65
2021/01/14 18:22:55;;;;;;;38.77;19.67;;;;;;;1.80;66.87;98598.81;260829;1104;114200;-65
2021/01/14 18:27:57;;;;;;;46.83;24.57;;;;;;;1.81;67.13;98600.55;260724;1104;114806;-64
2021/01/14 18:33:00;;;;;;;46.87;23.10;;;;;;;1.87;67.15;98605.59;260681;1104;114775;-65
2021/01/14 18:38:03;;;;;;;46.93;22.97;;;;;;;1.87;67.04;98602.97;260780;1104;114144;-65
2021/01/14 18:43:05;;;;;;;50.37;23.63;;;;;;;1.82;67.33;98607.50;260234;1104;115203;-65
2021/01/14 18:48:08;;;;;;;49.10;24.23;;;;;;;1.77;66.91;98606.81;260364;1104;114354;-65
2021/01/14 18:53:10;;;;;;;42.10;23.03;;;;;;;1.70;67.08;98610.52;260568;1104;114309;-66
2021/01/14 18:58:13;;;;;;;50.77;25.10;;;;;;;1.72;67.34;98616.59;260244;1104;114236;-66
2021/01/14 19:03:15;;;;;;;48.70;25.07;;;;;;;1.75;67.12;98616.48;260194;1104;115091;-65
2021/01/14 19:08:19;;;;;;;49.07;22.13;;;;;;;1.74;67.29;98614.78;260337;1104;114484;-65
2021/01/14 19:13:21;;;;;;;53.27;23.73;;;;;;;1.74;67.48;98618.26;260320;1104;114607;-67
2021/01/14 19:18:23;;;;;;;45.37;23.53;;;;;;;1.71;66.95;98613.11;260228;1104;114553;-66
2021/01/14 19:23:26;;;;;;;46.57;23.00;;;;;;;1.68;67.13;98621.08;260360;1104;114557;-66
2021/01/14 19:28:28;;;;;;;43.93;21.73;;;;;;;1.73;67.15;98615.66;260307;1104;114800;-66
2021/01/14 19:33:31;;;;;;;46.23;22.37;;;;;;;1.70;67.15;98621.02;260298;1104;115105;-66
2021/01/14 19:38:33;;;;;;;47.23;24.27;;;;;;;1.65;67.25;98626.42;260368;1104;114335;-65
2021/01/14 19:43:38;;;;;;;50.80;23.57;;;;;;;1.68;67.35;98622.84;260384;1104;114439;-65
2021/01/14 19:48:45;;;;;;;46.93;23.47;;;;;;;1.72;67.37;98625.30;260179;1104;114707;-65
2021/01/14 19:53:47;;;;;;;49.67;24.73;;;;;;;1.71;66.99;98631.47;260285;1104;114359;-65
2021/01/14 19:58:55;;;;;;;49.80;26.43;;;;;;;1.72;67.42;98634.95;260491;1104;114462;-65
2021/01/14 20:03:57;;;;;;;52.20;26.47;;;;;;;1.71;67.92;98648.98;260440;1104;114375;-63
2021/01/14 20:08:59;;;;;;;57.17;27.37;;;;;;;1.73;67.56;98655.02;260560;1105;114530;-62
2021/01/14 20:14:02;;;;;;;46.37;24.07;;;;;;;1.75;67.59;98656.69;260396;1104;114280;-65
2021/01/14 20:19:05;;;;;;;52.73;25.27;;;;;;;1.78;67.26;98677.58;260222;1104;114526;-66
2021/01/14 20:24:08;;;;;;;53.77;26.93;;;;;;;1.74;67.23;98670.72;260377;1104;114188;-69
2021/01/14 20:29:13;;;;;;;41.23;18.80;;;;;;;1.74;67.34;98675.97;260301;1104;114443;-68
2021/01/14 20:34:18;;;;;;;;;;;;;;;1.75;66.93;98679.44;260447;1104;114533;-69
2021/01/14 20:39:22;;;;;;;24.43;12.97;;;;;;;1.82;66.70;98679.19;260401;1104;102565;-67
2021/01/14 20:44:27;;;;;;;23.80;12.47;;;;;;;1.79;66.45;98681.91;260425;1104;114624;-68
2021/01/14 20:49:34;;;;;;;27.73;13.67;;;;;;;1.73;66.08;98683.86;260288;1105;114300;-68
2021/01/14 20:54:41;;;;;;;29.43;14.27;;;;;;;1.67;65.69;98684.94;260302;1104;114971;-67
2021/01/14 20:59:43;;;;;;;22.80;13.43;;;;;;;1.63;65.77;98683.30;260398;1104;114621;-69
2021/01/14 21:04:46;;;;;;;26.10;13.47;;;;;;;1.61;65.42;98696.47;260408;1104;115014;-68
2021/01/14 21:09:48;;;;;;;25.17;13.70;;;;;;;1.59;65.26;98682.53;260269;1104;114614;-68
2021/01/14 21:14:54;;;;;;;26.43;13.70;;;;;;;1.54;64.72;98704.59;260621;1104;114578;-67
2021/01/14 21:20:00;;;;;;;30.13;15.57;;;;;;;1.42;65.33;98684.83;260220;1104;114441;-67
2021/01/14 21:25:06;;;;;;;28.33;14.80;;;;;;;1.42;65.38;98692.69;260553;1104;114368;-70
2021/01/14 21:30:10;;;;;;;32.17;16.30;;;;;;;1.39;65.42;98695.41;260442;1104;114549;-66
2021/01/14 21:35:12;;;;;;;32.23;16.53;;;;;;;1.41;65.60;98698.85;260608;1104;114423;-67
2021/01/14 21:40:15;;;;;;;29.27;16.03;;;;;;;1.38;64.85;98701.56;260619;1104;114695;-66
2021/01/14 21:45:18;;;;;;;36.17;17.57;;;;;;;1.37;65.55;98698.09;261013;1104;114425;-67
2021/01/14 21:50:26;;;;;;;27.60;14.03;;;;;;;1.41;64.84;98701.47;260336;1104;114179;-68
2021/01/14 21:55:30;;;;;;;25.83;14.20;;;;;;;1.38;64.94;98702.42;260730;1104;114361;-69
2021/01/14 22:00:35;;;;;;;29.42;14.65;;;;;;;1.36;64.60;98699.00;260502;1104;114573;-69
2021/01/14 22:05:40;;;;;;;24.40;13.33;;;;;;;1.32;65.02;98701.74;260768;1104;114812;-68
2021/01/14 22:10:42;;;;;;;27.77;14.47;;;;;;;1.27;64.43;98706.28;260810;1104;116476;-66
2021/01/14 22:15:47;;;;;;;25.53;13.33;;;;;;;1.26;64.12;98708.05;260865;1104;114526;-65
2021/01/14 22:20:49;;;;;;;25.23;14.47;;;;;;;1.23;64.36;98709.91;260575;1104;115758;-64
2021/01/14 22:25:53;;;;;;;29.90;13.97;;;;;;;1.19;63.67;98714.38;260880;1104;114583;-65
2021/01/14 22:30:55;;;;;;;31.17;16.83;;;;;;;1.16;63.75;98728.42;260099;1104;114523;-64
2021/01/14 22:35:58;;;;;;;32.23;16.23;;;;;;;1.17;64.30;98727.51;260839;1104;114819;-66
2021/01/14 22:41:01;;;;;;;29.90;15.13;;;;;;;1.18;65.06;98736.23;260948;1104;115534;-68
2021/01/14 22:46:04;;;;;;;28.87;14.43;;;;;;;1.17;65.05;98730.13;260650;1104;114671;-65
2021/01/14 22:51:07;;;;;;;31.43;15.30;;;;;;;1.14;64.60;98724.12;260628;1104;114554;-68
2021/01/14 22:56:15;;;;;;;29.27;16.13;;;;;;;1.14;64.68;98719.73;260531;1104;114981;-69
2021/01/14 23:01:40;;;;;;;33.03;17.00;;;;;;;1.16;65.01;98715.31;260567;1104;114633;-70
2021/01/14 23:06:47;;;;;;;33.47;17.43;;;;;;;1.19;64.20;98724.86;260713;1104;114412;-68
2021/01/14 23:11:54;;;;;;;30.47;16.17;;;;;;;1.10;64.34;98727.73;260713;1104;114656;-69
2021/01/14 23:17:00;;;;;;;34.90;17.90;;;;;;;1.07;65.01;98739.16;260807;1104;114621;-68
2021/01/14 23:22:11;;;;;;;38.87;21.73;;;;;;;1.07;65.13;98739.16;260074;1104;114851;-72
2021/01/14 23:27:24;;;;;;;39.80;21.47;;;;;;;1.06;64.85;98757.56;260682;1104;114497;-64
2021/01/14 23:32:26;;;;;;;41.10;21.77;;;;;;;1.00;64.68;98761.20;260886;1104;114508;-63
2021/01/14 23:37:32;;;;;;;39.90;21.80;;;;;;;1.00;65.76;98761.20;260935;1104;115486;-63
2021/01/14 23:42:35;;;;;;;39.77;21.57;;;;;;;0.97;64.82;98763.05;260802;1104;114454;-65
2021/01/14 23:47:38;;;;;;;34.10;19.95;;;;;;;0.96;64.66;98772.67;260780;1104;114664;-65
2021/01/14 23:52:40;;;;;;;37.27;19.47;;;;;;;0.93;65.38;98772.75;260937;1104;114680;-64
2021/01/14 23:57:42;;;;;;;33.77;18.43;;;;;;;0.93;64.95;98780.61;261033;1104;114823;-65
